createdAt,value
2023-05-11T00:00:19.286Z,13.58
2023-05-11T00:01:19.000Z,13.67
2023-05-11T00:02:19.076Z,13.58
2023-05-11T00:03:19.074Z,13.67
2023-05-11T00:04:19.021Z,13.50
2023-05-11T00:05:18.962Z,13.60
2023-05-11T00:06:18.960Z,13.62
2023-05-11T00:07:18.974Z,13.67
2023-05-11T00:08:18.932Z,13.68
2023-05-11T00:09:18.926Z,13.64
2023-05-11T00:10:19.032Z,13.76
2023-05-11T00:11:18.903Z,13.71
2023-05-11T00:12:18.910Z,13.80
2023-05-11T00:13:18.871Z,13.75
2023-05-11T00:14:18.875Z,13.65
2023-05-11T00:15:18.878Z,13.79
2023-05-11T00:16:18.923Z,13.71
2023-05-11T00:17:18.842Z,13.82
2023-05-11T00:18:18.861Z,13.75
2023-05-11T00:19:18.813Z,13.86
2023-05-11T00:20:19.252Z,13.78
2023-05-11T00:21:18.791Z,13.78
2023-05-11T00:22:18.805Z,13.71
2023-05-11T00:23:18.749Z,13.78
2023-05-11T00:24:18.750Z,13.82
2023-05-11T00:25:18.770Z,13.80
2023-05-11T00:26:18.734Z,13.83
2023-05-11T00:27:18.744Z,13.82
2023-05-11T00:28:18.715Z,13.64
2023-05-11T00:29:18.684Z,13.73
2023-05-11T00:30:18.826Z,13.68
2023-05-11T00:31:18.714Z,13.71
2023-05-11T00:32:18.678Z,13.75
2023-05-11T00:33:18.688Z,13.80
2023-05-11T00:34:18.635Z,13.78
2023-05-11T00:35:18.648Z,13.79
2023-05-11T00:36:18.634Z,13.73
2023-05-11T00:37:18.620Z,13.82
2023-05-11T00:38:18.588Z,13.75
2023-05-11T00:39:18.571Z,13.80
2023-05-11T00:40:18.712Z,13.87
2023-05-11T00:41:18.545Z,13.80
2023-05-11T00:42:18.544Z,13.79
2023-05-11T00:43:18.522Z,13.70
2023-05-11T00:44:18.549Z,13.75
2023-05-11T00:45:18.511Z,13.73
2023-05-11T00:46:18.555Z,13.70
2023-05-11T00:47:18.489Z,13.71
2023-05-11T00:48:18.467Z,13.78
2023-05-11T00:49:19.452Z,13.73
2023-05-11T00:50:18.666Z,13.78
2023-05-11T00:51:18.447Z,13.65
2023-05-11T00:52:18.425Z,13.79
2023-05-11T00:53:18.433Z,13.73
2023-05-11T00:54:18.397Z,13.73
2023-05-11T00:55:18.405Z,13.65
2023-05-11T00:56:18.374Z,13.67
2023-05-11T00:57:18.381Z,13.73
2023-05-11T00:58:18.358Z,13.64
2023-05-11T00:59:18.357Z,13.71
2023-05-11T01:00:18.669Z,13.71
2023-05-11T01:01:18.417Z,13.61
2023-05-11T01:02:18.393Z,13.79
2023-05-11T01:03:18.381Z,13.73
2023-05-11T01:04:18.289Z,13.73
2023-05-11T01:05:18.281Z,13.73
2023-05-11T01:06:19.293Z,13.67
2023-05-11T01:07:18.262Z,13.73
2023-05-11T01:08:18.269Z,13.71
2023-05-11T01:09:18.231Z,13.78
2023-05-11T01:10:18.371Z,13.83
2023-05-11T01:11:18.249Z,13.75
2023-05-11T01:12:18.209Z,13.76
2023-05-11T01:13:18.189Z,13.73
2023-05-11T01:14:18.203Z,13.70
2023-05-11T01:15:18.188Z,13.75
2023-05-11T01:16:18.187Z,13.76
2023-05-11T01:17:18.139Z,13.76
2023-05-11T01:18:18.225Z,13.78
2023-05-11T01:19:18.148Z,13.67
2023-05-11T01:20:18.326Z,13.57
2023-05-11T01:21:18.097Z,13.54
2023-05-11T01:22:18.081Z,13.60
2023-05-11T01:23:18.099Z,13.67
2023-05-11T01:24:18.080Z,13.64
2023-05-11T01:25:18.057Z,13.57
2023-05-11T01:26:18.080Z,13.67
2023-05-11T01:27:18.062Z,13.58
2023-05-11T01:28:18.043Z,13.65
2023-05-11T01:29:18.008Z,13.58
2023-05-11T01:30:18.241Z,13.60
2023-05-11T01:31:18.013Z,13.55
2023-05-11T01:32:17.971Z,13.62
2023-05-11T01:33:18.026Z,13.71
2023-05-11T01:34:17.999Z,13.70
2023-05-11T01:35:17.939Z,13.68
2023-05-11T01:36:17.920Z,13.61
2023-05-11T01:37:17.924Z,13.73
2023-05-11T01:38:17.916Z,13.71
2023-05-11T01:39:17.882Z,13.57
2023-05-11T01:40:18.160Z,13.62
2023-05-11T01:41:17.899Z,13.55
2023-05-11T01:42:17.875Z,13.58
2023-05-11T01:43:17.832Z,13.64
2023-05-11T01:44:17.858Z,13.60
2023-05-11T01:45:17.836Z,13.61
2023-05-11T01:46:17.887Z,13.61
2023-05-11T01:47:18.820Z,13.55
2023-05-11T01:48:17.798Z,13.52
2023-05-11T01:49:17.780Z,13.55
2023-05-11T01:50:18.028Z,13.40
2023-05-11T01:51:17.775Z,13.46
2023-05-11T01:52:17.760Z,13.50
2023-05-11T01:53:17.751Z,13.47
2023-05-11T01:54:17.732Z,13.52
2023-05-11T01:55:17.741Z,13.46
2023-05-11T01:56:17.752Z,13.43
2023-05-11T01:57:17.711Z,13.49
2023-05-11T01:58:17.678Z,13.49
2023-05-11T01:59:17.699Z,13.49
2023-05-11T02:00:17.895Z,13.46
2023-05-11T02:01:17.738Z,13.47
2023-05-11T02:02:17.691Z,13.46
2023-05-11T02:03:50.357Z,13.36
2023-05-11T02:04:17.668Z,13.40
2023-05-11T02:05:17.646Z,13.40
2023-05-11T02:06:17.633Z,13.49
2023-05-11T02:07:17.607Z,13.27
2023-05-11T02:08:18.643Z,13.28
2023-05-11T02:09:17.593Z,13.21
2023-05-11T02:10:17.812Z,13.31
2023-05-11T02:11:17.553Z,13.31
2023-05-11T02:12:17.529Z,13.33
2023-05-11T02:13:17.519Z,13.28
2023-05-11T02:14:17.496Z,13.28
2023-05-11T02:15:17.537Z,13.37
2023-05-11T02:16:17.560Z,13.24
2023-05-11T02:17:17.529Z,13.31
2023-05-11T02:18:17.489Z,13.24
2023-05-11T02:19:17.526Z,13.28
2023-05-11T02:20:17.611Z,13.37
2023-05-11T02:21:17.408Z,13.37
2023-05-11T02:22:17.497Z,13.27
2023-05-11T02:23:17.428Z,13.40
2023-05-11T02:24:17.385Z,13.28
2023-05-11T02:25:17.402Z,13.31
2023-05-11T02:26:17.415Z,13.28
2023-05-11T02:27:17.351Z,13.37
2023-05-11T02:28:17.348Z,13.33
2023-05-11T02:29:17.387Z,13.39
2023-05-11T02:30:17.678Z,13.20
2023-05-11T02:31:17.336Z,13.20
2023-05-11T02:32:17.350Z,13.24
2023-05-11T02:33:17.284Z,13.24
2023-05-11T02:34:17.322Z,13.21
2023-05-11T02:35:17.281Z,13.26
2023-05-11T02:36:18.265Z,13.21
2023-05-11T02:37:17.239Z,13.19
2023-05-11T02:38:17.221Z,13.16
2023-05-11T02:39:17.260Z,13.26
2023-05-11T02:40:17.486Z,13.20
2023-05-11T02:41:17.240Z,13.16
2023-05-11T02:42:17.234Z,13.11
2023-05-11T02:43:17.183Z,13.09
2023-05-11T02:44:17.211Z,13.05
2023-05-11T02:45:17.172Z,12.88
2023-05-11T02:46:17.228Z,13.05
2023-05-11T02:47:17.155Z,12.93
2023-05-11T02:48:17.234Z,12.91
2023-05-11T02:49:17.142Z,12.93
2023-05-11T02:50:17.288Z,12.93
2023-05-11T02:51:18.070Z,12.90
2023-05-11T02:52:17.081Z,13.02
2023-05-11T02:53:17.095Z,12.94
2023-05-11T02:54:17.050Z,13.03
2023-05-11T02:55:17.022Z,12.99
2023-05-11T02:56:17.058Z,12.95
2023-05-11T02:57:17.026Z,13.02
2023-05-11T02:58:17.109Z,13.02
2023-05-11T02:59:16.999Z,12.95
2023-05-11T03:00:17.295Z,13.03
2023-05-11T03:01:17.000Z,12.98
2023-05-11T03:02:17.068Z,12.91
2023-05-11T03:03:17.058Z,12.93
2023-05-11T03:04:16.935Z,12.88
2023-05-11T03:05:17.022Z,12.98
2023-05-11T03:06:16.946Z,12.91
2023-05-11T03:07:16.888Z,12.91
2023-05-11T03:08:16.920Z,13.11
2023-05-11T03:09:16.889Z,12.98
2023-05-11T03:10:17.102Z,13.05
2023-05-11T03:11:16.845Z,13.13
2023-05-11T03:12:16.877Z,13.02
2023-05-11T03:13:16.887Z,13.02
2023-05-11T03:14:16.818Z,13.03
2023-05-11T03:15:16.867Z,12.95
2023-05-11T03:16:17.923Z,12.94
2023-05-11T03:17:16.814Z,12.93
2023-05-11T03:18:16.801Z,13.01
2023-05-11T03:19:16.844Z,12.98
2023-05-11T03:20:17.104Z,13.01
2023-05-11T03:21:16.783Z,12.99
2023-05-11T03:22:16.740Z,12.99
2023-05-11T03:23:16.745Z,13.05
2023-05-11T03:24:16.716Z,13.02
2023-05-11T03:25:16.713Z,13.16
2023-05-11T03:26:16.696Z,13.11
2023-05-11T03:27:16.678Z,13.17
2023-05-11T03:28:16.704Z,13.11
2023-05-11T03:29:16.669Z,13.17
2023-05-11T03:30:16.808Z,13.16
2023-05-11T03:31:16.679Z,13.11
2023-05-11T03:32:17.755Z,13.21
2023-05-11T03:33:16.600Z,13.11
2023-05-11T03:34:16.602Z,13.17
2023-05-11T03:35:16.619Z,13.08
2023-05-11T03:36:16.622Z,13.20
2023-05-11T03:37:16.605Z,13.05
2023-05-11T03:38:16.558Z,13.16
2023-05-11T03:39:16.549Z,13.06
2023-05-11T03:40:16.786Z,13.17
2023-05-11T03:41:16.541Z,13.12
2023-05-11T03:42:16.552Z,13.19
2023-05-11T03:43:16.476Z,13.03
2023-05-11T03:44:16.490Z,13.13
2023-05-11T03:45:16.493Z,13.13
2023-05-11T03:46:16.518Z,13.11
2023-05-11T03:47:16.474Z,13.13
2023-05-11T03:48:16.457Z,13.16
2023-05-11T03:49:16.409Z,13.09
2023-05-11T03:50:16.568Z,13.05
2023-05-11T03:51:16.444Z,13.06
2023-05-11T03:52:16.400Z,12.99
2023-05-11T03:53:16.377Z,13.08
2023-05-11T03:54:16.377Z,12.91
2023-05-11T03:55:16.375Z,12.93
2023-05-11T03:56:16.375Z,12.86
2023-05-11T03:57:16.339Z,12.90
2023-05-11T03:58:16.306Z,12.99
2023-05-11T03:59:16.334Z,12.95
2023-05-11T04:00:16.473Z,12.95
2023-05-11T04:01:16.307Z,12.88
2023-05-11T04:02:16.299Z,12.81
2023-05-11T04:03:16.390Z,12.76
2023-05-11T04:04:16.260Z,12.80
2023-05-11T04:05:16.255Z,12.70
2023-05-11T04:06:16.278Z,12.75
2023-05-11T04:07:16.211Z,12.73
2023-05-11T04:08:16.231Z,12.75
2023-05-11T04:09:16.192Z,12.68
2023-05-11T04:10:16.274Z,12.84
2023-05-11T04:11:16.177Z,12.87
2023-05-11T04:12:16.180Z,12.86
2023-05-11T04:13:16.137Z,12.84
2023-05-11T04:14:16.123Z,12.81
2023-05-11T04:15:16.177Z,12.72
2023-05-11T04:16:16.127Z,12.80
2023-05-11T04:17:16.139Z,12.75
2023-05-11T04:18:16.124Z,12.84
2023-05-11T04:19:16.058Z,12.80
2023-05-11T04:20:16.247Z,12.84
2023-05-11T04:21:16.087Z,12.86
2023-05-11T04:22:16.062Z,12.84
2023-05-11T04:23:16.022Z,12.78
2023-05-11T04:24:16.068Z,12.78
2023-05-11T04:25:16.020Z,12.81
2023-05-11T04:26:16.023Z,12.86
2023-05-11T04:27:16.002Z,12.75
2023-05-11T04:28:15.954Z,12.87
2023-05-11T04:29:15.964Z,12.81
2023-05-11T04:30:16.132Z,12.78
2023-05-11T04:31:16.063Z,12.68
2023-05-11T04:32:15.944Z,12.66
2023-05-11T04:33:15.916Z,12.68
2023-05-11T04:34:15.900Z,12.65
2023-05-11T04:35:15.893Z,12.68
2023-05-11T04:36:15.920Z,12.69
2023-05-11T04:37:15.856Z,12.75
2023-05-11T04:38:15.847Z,12.72
2023-05-11T04:39:15.884Z,12.70
2023-05-11T04:40:15.898Z,12.72
2023-05-11T04:41:15.831Z,12.70
2023-05-11T04:42:15.845Z,12.83
2023-05-11T04:43:15.765Z,12.91
2023-05-11T04:44:15.779Z,12.90
2023-05-11T04:45:15.817Z,12.95
2023-05-11T04:46:15.812Z,12.95
2023-05-11T04:47:15.743Z,13.09
2023-05-11T04:48:17.931Z,13.13
2023-05-11T04:49:15.769Z,13.17
2023-05-11T04:50:15.828Z,13.17
2023-05-11T04:51:15.733Z,13.13
2023-05-11T04:52:15.713Z,13.16
2023-05-11T04:53:15.670Z,13.17
2023-05-11T04:54:15.680Z,13.26
2023-05-11T04:55:15.695Z,13.13
2023-05-11T04:56:15.668Z,13.11
2023-05-11T04:57:15.623Z,13.03
2023-05-11T04:58:15.646Z,13.01
2023-05-11T04:59:15.637Z,12.95
2023-05-11T05:00:15.795Z,12.90
2023-05-11T05:01:15.624Z,12.93
2023-05-11T05:02:15.636Z,12.99
2023-05-11T05:03:15.658Z,13.06
2023-05-11T05:04:15.655Z,13.08
2023-05-11T05:05:15.569Z,13.11
2023-05-11T05:06:15.566Z,12.99
2023-05-11T05:07:15.497Z,13.09
2023-05-11T05:08:15.510Z,13.11
2023-05-11T05:09:15.558Z,13.19
2023-05-11T05:10:15.637Z,13.27
2023-05-11T05:11:15.478Z,13.27
2023-05-11T05:12:15.524Z,13.47
2023-05-11T05:13:15.445Z,13.39
2023-05-11T05:14:15.434Z,13.43
2023-05-11T05:15:15.519Z,13.28
2023-05-11T05:16:15.440Z,13.31
2023-05-11T05:17:15.445Z,13.37
2023-05-11T05:18:15.492Z,13.40
2023-05-11T05:19:15.403Z,13.42
2023-05-11T05:20:15.428Z,13.46
2023-05-11T05:21:15.400Z,13.45
2023-05-11T05:22:15.385Z,13.39
2023-05-11T05:23:15.364Z,13.21
2023-05-11T05:24:15.359Z,13.19
2023-05-11T05:25:15.342Z,13.12
2023-05-11T05:26:15.332Z,13.16
2023-05-11T05:27:15.350Z,13.17
2023-05-11T05:28:15.366Z,13.17
2023-05-11T05:29:15.313Z,13.05
2023-05-11T05:30:15.382Z,13.02
2023-05-11T05:31:15.244Z,13.05
2023-05-11T05:32:16.258Z,12.91
2023-05-11T05:33:15.282Z,13.11
2023-05-11T05:34:16.545Z,13.09
2023-05-11T05:35:16.208Z,13.11
2023-05-11T05:36:15.262Z,13.21
2023-05-11T05:37:15.179Z,13.19
2023-05-11T05:38:15.198Z,13.26
2023-05-11T05:39:15.191Z,13.12
2023-05-11T05:40:15.185Z,13.13
2023-05-11T05:41:15.130Z,13.17
2023-05-11T05:42:15.141Z,13.28
2023-05-11T05:43:15.143Z,13.45
2023-05-11T05:44:15.127Z,13.54
2023-05-11T05:45:15.146Z,13.61
2023-05-11T05:46:15.091Z,13.62
2023-05-11T05:47:15.057Z,13.61
2023-05-11T05:48:15.071Z,13.55
2023-05-11T05:49:15.087Z,13.50
2023-05-11T05:50:15.056Z,13.43
2023-05-11T05:51:15.030Z,13.42
2023-05-11T05:52:15.046Z,13.28
2023-05-11T05:53:14.992Z,13.20
2023-05-11T05:54:15.026Z,13.33
2023-05-11T05:55:14.993Z,13.33
2023-05-11T05:56:14.983Z,13.33
2023-05-11T05:57:15.803Z,13.23
2023-05-11T05:58:15.955Z,13.27
2023-05-11T05:59:14.990Z,13.45
2023-05-11T06:00:14.933Z,13.58
2023-05-11T06:01:14.893Z,13.57
2023-05-11T06:02:14.950Z,13.64
2023-05-11T06:03:14.984Z,13.50
2023-05-11T06:04:14.991Z,13.60
2023-05-11T06:05:14.873Z,13.60
2023-05-11T06:06:14.873Z,13.55
2023-05-11T06:07:14.878Z,13.61
2023-05-11T06:08:14.821Z,13.58
2023-05-11T06:09:14.876Z,13.40
2023-05-11T06:10:14.816Z,13.40
2023-05-11T06:11:14.777Z,13.27
2023-05-11T06:12:14.814Z,13.42
2023-05-11T06:13:14.808Z,13.37
2023-05-11T06:14:14.771Z,13.39
2023-05-11T06:15:14.766Z,13.33
2023-05-11T06:16:14.850Z,13.30
2023-05-11T06:17:14.716Z,13.37
2023-05-11T06:18:14.778Z,13.37
2023-05-11T06:19:14.709Z,13.49
2023-05-11T06:20:14.702Z,13.55
2023-05-11T06:21:14.673Z,13.60
2023-05-11T06:22:15.661Z,13.68
2023-05-11T06:23:14.706Z,13.65
2023-05-11T06:24:14.663Z,13.71
2023-05-11T06:25:14.648Z,13.64
2023-05-11T06:26:14.620Z,13.62
2023-05-11T06:27:17.363Z,13.50
2023-05-11T06:28:14.602Z,13.47
2023-05-11T06:29:14.604Z,13.49
2023-05-11T06:30:14.609Z,13.31
2023-05-11T06:31:14.555Z,13.40
2023-05-11T06:32:14.550Z,13.49
2023-05-11T06:33:14.623Z,13.55
2023-05-11T06:34:14.533Z,13.55
2023-05-11T06:35:14.504Z,13.55
2023-05-11T06:36:14.494Z,13.58
2023-05-11T06:37:14.523Z,13.73
2023-05-11T06:38:14.507Z,13.75
2023-05-11T06:39:14.472Z,13.89
2023-05-11T06:40:14.603Z,13.97
2023-05-11T06:41:14.507Z,13.89
2023-05-11T06:42:14.431Z,13.86
2023-05-11T06:43:14.442Z,13.83
2023-05-11T06:44:14.457Z,13.87
2023-05-11T06:45:14.459Z,13.80
2023-05-11T06:46:14.441Z,13.78
2023-05-11T06:47:14.429Z,13.93
2023-05-11T06:48:14.427Z,13.82
2023-05-11T06:49:14.381Z,13.93
2023-05-11T06:50:14.406Z,13.87
2023-05-11T06:51:14.309Z,13.89
2023-05-11T06:52:14.343Z,13.91
2023-05-11T06:53:14.428Z,13.95
2023-05-11T06:54:14.298Z,13.94
2023-05-11T06:55:14.298Z,14.04
2023-05-11T06:56:14.352Z,14.00
2023-05-11T06:57:14.616Z,14.00
2023-05-11T06:58:15.269Z,14.13
2023-05-11T06:59:14.251Z,14.18
2023-05-11T07:00:14.257Z,14.05
2023-05-11T07:01:14.252Z,13.98
2023-05-11T07:02:14.227Z,14.07
2023-05-11T07:03:14.319Z,14.12
2023-05-11T07:04:14.252Z,14.22
2023-05-11T07:05:14.211Z,14.19
2023-05-11T07:06:14.201Z,14.19
2023-05-11T07:07:14.188Z,14.20
2023-05-11T07:08:14.207Z,14.36
2023-05-11T07:09:14.135Z,14.40
2023-05-11T07:10:14.135Z,14.55
2023-05-11T07:11:14.093Z,14.63
2023-05-11T07:12:14.096Z,14.79
2023-05-11T07:13:14.244Z,14.81
2023-05-11T07:14:14.077Z,14.89
2023-05-11T07:15:14.062Z,15.02
2023-05-11T07:16:14.077Z,15.00
2023-05-11T07:17:14.123Z,15.15
2023-05-11T07:18:14.052Z,15.27
2023-05-11T07:19:14.064Z,15.37
2023-05-11T07:20:14.031Z,15.39
2023-05-11T07:21:13.992Z,15.51
2023-05-11T07:22:15.050Z,15.51
2023-05-11T07:23:14.991Z,15.66
2023-05-11T07:24:13.981Z,15.67
2023-05-11T07:25:13.937Z,15.67
2023-05-11T07:26:13.990Z,15.83
2023-05-11T07:27:13.959Z,15.91
2023-05-11T07:28:13.935Z,15.98
2023-05-11T07:29:13.946Z,16.02
2023-05-11T07:30:13.897Z,16.13
2023-05-11T07:31:13.898Z,16.12
2023-05-11T07:32:13.885Z,16.16
2023-05-11T07:33:13.858Z,16.24
2023-05-11T07:34:13.850Z,16.37
2023-05-11T07:35:13.802Z,16.50
2023-05-11T07:36:13.852Z,16.37
2023-05-11T07:37:13.812Z,16.54
2023-05-11T07:38:13.804Z,16.41
2023-05-11T07:39:13.819Z,16.47
2023-05-11T07:40:13.791Z,16.62
2023-05-11T07:41:13.754Z,16.61
2023-05-11T07:42:13.795Z,16.72
2023-05-11T07:43:13.763Z,16.64
2023-05-11T07:44:13.738Z,16.80
2023-05-11T07:45:13.754Z,16.66
2023-05-11T07:46:13.779Z,16.76
2023-05-11T07:47:13.696Z,16.69
2023-05-11T07:48:13.831Z,16.77
2023-05-11T07:49:19.005Z,16.79
2023-05-11T07:50:17.002Z,16.61
2023-05-11T07:51:13.659Z,16.62
2023-05-11T07:52:13.685Z,16.57
2023-05-11T07:53:13.640Z,16.72
2023-05-11T07:54:13.696Z,16.74
2023-05-11T07:55:13.660Z,16.74
2023-05-11T07:56:13.618Z,16.82
2023-05-11T07:57:13.575Z,16.92
2023-05-11T07:58:13.602Z,16.84
2023-05-11T07:59:13.591Z,16.84
2023-05-11T08:00:13.579Z,16.82
2023-05-11T08:01:13.597Z,16.80
2023-05-11T08:02:13.675Z,16.61
2023-05-11T08:03:13.558Z,16.69
2023-05-11T08:04:46.331Z,16.73
2023-05-11T08:05:13.511Z,16.80
2023-05-11T08:06:13.616Z,16.73
2023-05-11T08:07:13.485Z,16.79
2023-05-11T08:08:13.490Z,16.73
2023-05-11T08:09:13.494Z,16.65
2023-05-11T08:10:13.456Z,16.24
2023-05-11T08:11:13.459Z,16.24
2023-05-11T08:12:13.427Z,16.25
2023-05-11T08:13:13.417Z,16.22
2023-05-11T08:14:13.450Z,16.43
2023-05-11T08:15:13.412Z,16.41
2023-05-11T08:16:13.448Z,16.61
2023-05-11T08:17:13.423Z,16.59
2023-05-11T08:18:13.372Z,16.74
2023-05-11T08:19:13.358Z,16.74
2023-05-11T08:20:13.385Z,16.84
2023-05-11T08:21:13.341Z,16.87
2023-05-11T08:22:13.316Z,16.83
2023-05-11T08:23:13.324Z,16.89
2023-05-11T08:24:13.338Z,17.01
2023-05-11T08:25:13.294Z,17.17
2023-05-11T08:26:13.320Z,17.16
2023-05-11T08:27:13.298Z,17.09
2023-05-11T08:28:13.285Z,16.89
2023-05-11T08:29:13.246Z,16.87
2023-05-11T08:30:13.233Z,16.91
2023-05-11T08:31:13.307Z,17.01
2023-05-11T08:32:13.342Z,17.14
2023-05-11T08:33:33.878Z,17.14
2023-05-11T08:34:19.781Z,17.23
2023-05-11T08:35:15.225Z,17.22
2023-05-11T08:36:13.219Z,17.20
2023-05-11T08:37:13.159Z,16.94
2023-05-11T08:38:13.193Z,16.99
2023-05-11T08:39:13.173Z,16.82
2023-05-11T08:40:14.831Z,16.84
2023-05-11T08:41:14.109Z,16.94
2023-05-11T08:42:13.156Z,17.12
2023-05-11T08:43:13.118Z,17.10
2023-05-11T08:44:13.085Z,16.94
2023-05-11T08:45:13.085Z,16.76
2023-05-11T08:46:13.143Z,16.72
2023-05-11T08:47:21.844Z,16.65
2023-05-11T08:48:15.049Z,16.47
2023-05-11T08:49:13.017Z,15.92
2023-05-11T08:50:13.014Z,15.73
2023-05-11T08:51:13.042Z,15.83
2023-05-11T08:52:13.004Z,15.70
2023-05-11T08:53:12.970Z,15.73
2023-05-11T08:54:14.012Z,15.90
2023-05-11T08:55:12.987Z,15.83
2023-05-11T08:56:12.959Z,16.00
2023-05-11T08:57:12.955Z,16.00
2023-05-11T08:58:12.933Z,15.92
2023-05-11T08:59:12.926Z,16.03
2023-05-11T09:00:12.926Z,16.18
2023-05-11T09:01:12.909Z,16.37
2023-05-11T09:02:12.925Z,16.22
2023-05-11T09:03:12.949Z,16.24
2023-05-11T09:04:12.873Z,16.16
2023-05-11T09:05:12.901Z,16.47
2023-05-11T09:06:12.860Z,16.62
2023-05-11T09:07:12.822Z,16.76
2023-05-11T09:08:12.820Z,16.89
2023-05-11T09:09:12.819Z,17.07
2023-05-11T09:10:13.968Z,17.28
2023-05-11T09:11:13.831Z,17.23
2023-05-11T09:12:12.791Z,17.14
2023-05-11T09:13:12.815Z,17.39
2023-05-11T09:14:12.799Z,17.66
2023-05-11T09:15:12.758Z,17.86
2023-05-11T09:16:27.867Z,17.94
2023-05-11T09:17:14.841Z,18.13
2023-05-11T09:18:12.788Z,18.16
2023-05-11T09:19:12.696Z,18.08
2023-05-11T09:20:12.688Z,18.15
2023-05-11T09:21:12.767Z,18.24
2023-05-11T09:22:12.682Z,18.43
2023-05-11T09:23:12.661Z,18.43
2023-05-11T09:24:12.727Z,18.57
2023-05-11T09:25:12.702Z,18.70
2023-05-11T09:26:12.628Z,18.66
2023-05-11T09:27:12.625Z,18.60
2023-05-11T09:28:15.865Z,18.18
2023-05-11T09:29:13.586Z,17.95
2023-05-11T09:30:12.615Z,17.76
2023-05-11T09:31:12.691Z,17.73
2023-05-11T09:32:12.572Z,17.54
2023-05-11T09:33:12.551Z,17.57
2023-05-11T09:34:12.537Z,17.49
2023-05-11T09:35:12.572Z,17.52
2023-05-11T09:36:12.512Z,17.52
2023-05-11T09:37:12.512Z,17.34
2023-05-11T09:38:12.524Z,17.39
2023-05-11T09:39:15.902Z,17.38
2023-05-11T09:40:27.002Z,17.35
2023-05-11T09:41:14.470Z,17.32
2023-05-11T09:42:12.486Z,17.32
2023-05-11T09:43:12.467Z,17.39
2023-05-11T09:44:12.440Z,17.46
2023-05-11T09:45:12.420Z,17.38
2023-05-11T09:46:12.442Z,17.35
2023-05-11T09:47:12.425Z,17.31
2023-05-11T09:48:12.432Z,17.20
2023-05-11T09:49:12.377Z,17.13
2023-05-11T09:50:12.387Z,17.02
2023-05-11T09:51:12.368Z,17.16
2023-05-11T09:52:12.357Z,17.20
2023-05-11T09:53:12.345Z,17.54
2023-05-11T09:54:12.343Z,17.73
2023-05-11T09:55:12.311Z,17.86
2023-05-11T09:56:12.314Z,17.90
2023-05-11T09:57:12.318Z,18.08
2023-05-11T09:58:12.330Z,18.12
2023-05-11T09:59:12.269Z,18.00
2023-05-11T10:00:12.275Z,17.78
2023-05-11T10:01:12.297Z,17.73
2023-05-11T10:02:12.244Z,17.79
2023-05-11T10:03:12.267Z,17.63
2023-05-11T10:04:23.166Z,17.53
2023-05-11T10:05:14.221Z,17.52
2023-05-11T10:06:12.187Z,17.47
2023-05-11T10:07:12.201Z,17.37
2023-05-11T10:08:12.186Z,17.30
2023-05-11T10:09:12.174Z,17.07
2023-05-11T10:10:12.145Z,16.73
2023-05-11T10:11:12.125Z,16.54
2023-05-11T10:12:12.142Z,16.64
2023-05-11T10:13:12.123Z,16.59
2023-05-11T10:14:12.106Z,16.72
2023-05-11T10:15:12.086Z,16.84
2023-05-11T10:16:12.127Z,16.82
2023-05-11T10:17:12.104Z,16.95
2023-05-11T10:18:12.082Z,16.92
2023-05-11T10:19:12.087Z,16.83
2023-05-11T10:20:12.075Z,16.92
2023-05-11T10:21:12.050Z,16.99
2023-05-11T10:22:12.075Z,16.92
2023-05-11T10:23:12.014Z,16.80
2023-05-11T10:24:12.024Z,16.74
2023-05-11T10:25:12.009Z,16.79
2023-05-11T10:26:12.000Z,16.87
2023-05-11T10:27:11.987Z,16.97
2023-05-11T10:28:11.977Z,17.13
2023-05-11T10:29:11.952Z,17.24
2023-05-11T10:30:11.937Z,17.38
2023-05-11T10:31:12.008Z,17.46
2023-05-11T10:32:11.966Z,17.46
2023-05-11T10:33:11.955Z,17.52
2023-05-11T10:34:11.881Z,17.56
2023-05-11T10:35:12.224Z,17.57
2023-05-11T10:36:11.997Z,17.52
2023-05-11T10:37:11.913Z,17.50
2023-05-11T10:38:11.843Z,17.30
2023-05-11T10:39:11.880Z,16.97
2023-05-11T10:40:11.839Z,16.79
2023-05-11T10:41:11.821Z,16.62
2023-05-11T10:42:11.844Z,16.50
2023-05-11T10:43:11.804Z,16.39
2023-05-11T10:44:11.788Z,16.03
2023-05-11T10:45:11.795Z,15.75
2023-05-11T10:46:11.857Z,15.50
2023-05-11T10:47:11.766Z,15.59
2023-05-11T10:48:11.788Z,15.44
2023-05-11T10:49:11.736Z,15.35
2023-05-11T10:50:11.705Z,15.51
2023-05-11T10:51:11.749Z,15.50
2023-05-11T10:52:11.744Z,15.55
2023-05-11T10:53:11.698Z,15.54
2023-05-11T10:54:11.691Z,15.43
2023-05-11T10:55:11.659Z,15.44
2023-05-11T10:56:11.643Z,15.60
2023-05-11T10:57:11.652Z,15.72
2023-05-11T10:58:11.665Z,15.69
2023-05-11T10:59:11.634Z,15.52
2023-05-11T11:00:11.694Z,15.35
2023-05-11T11:01:11.754Z,15.37
2023-05-11T11:02:11.608Z,15.23
2023-05-11T11:03:11.565Z,15.32
2023-05-11T11:04:11.581Z,15.50
2023-05-11T11:05:11.577Z,15.51
2023-05-11T11:06:11.554Z,15.52
2023-05-11T11:07:11.555Z,15.67
2023-05-11T11:08:11.535Z,15.73
2023-05-11T11:09:11.523Z,15.92
2023-05-11T11:10:11.501Z,15.92
2023-05-11T11:11:11.542Z,15.85
2023-05-11T11:12:11.513Z,15.98
2023-05-11T11:13:11.492Z,15.98
2023-05-11T11:14:11.482Z,15.84
2023-05-11T11:15:11.434Z,15.54
2023-05-11T11:16:12.602Z,15.57
2023-05-11T11:17:11.505Z,15.54
2023-05-11T11:18:11.482Z,15.66
2023-05-11T11:19:11.457Z,15.70
2023-05-11T11:20:11.374Z,15.80
2023-05-11T11:21:11.395Z,15.78
2023-05-11T11:22:11.360Z,15.88
2023-05-11T11:23:11.355Z,15.83
2023-05-11T11:24:11.336Z,15.73
2023-05-11T11:25:11.354Z,15.63
2023-05-11T11:26:11.344Z,15.44
2023-05-11T11:27:11.325Z,15.29
2023-05-11T11:28:11.295Z,15.45
2023-05-11T11:29:11.312Z,15.51
2023-05-11T11:30:11.277Z,15.51
2023-05-11T11:31:11.288Z,15.41
2023-05-11T11:32:11.283Z,15.41
2023-05-11T11:33:11.288Z,15.35
2023-05-11T11:34:11.224Z,15.26
2023-05-11T11:35:11.239Z,15.10
2023-05-11T11:36:11.205Z,15.10
2023-05-11T11:37:11.222Z,15.04
2023-05-11T11:38:11.202Z,15.15
2023-05-11T11:39:11.172Z,15.32
2023-05-11T11:40:15.404Z,15.15
2023-05-11T11:41:12.155Z,15.05
2023-05-11T11:42:11.157Z,14.78
2023-05-11T11:43:11.145Z,14.87
2023-05-11T11:44:11.114Z,14.85
2023-05-11T11:45:11.114Z,14.70
2023-05-11T11:46:11.172Z,14.97
2023-05-11T11:47:11.100Z,14.89
2023-05-11T11:48:11.122Z,14.96
2023-05-11T11:49:11.071Z,15.18
2023-05-11T11:50:11.050Z,15.05
2023-05-11T11:51:11.081Z,14.99
2023-05-11T11:52:11.039Z,15.11
2023-05-11T11:53:11.024Z,15.33
2023-05-11T11:54:11.034Z,15.22
2023-05-11T11:55:11.004Z,15.32
2023-05-11T11:56:10.996Z,15.35
2023-05-11T11:57:10.968Z,15.60
2023-05-11T11:58:10.972Z,15.55
2023-05-11T11:59:10.978Z,15.65
2023-05-11T12:00:11.013Z,15.65
2023-05-11T12:01:10.950Z,15.39
2023-05-11T12:02:10.896Z,15.36
2023-05-11T12:03:10.952Z,15.36
2023-05-11T12:04:11.004Z,15.52
2023-05-11T12:05:10.901Z,15.39
2023-05-11T12:06:10.885Z,15.32
2023-05-11T12:07:10.876Z,15.35
2023-05-11T12:08:10.876Z,15.32
2023-05-11T12:09:10.854Z,15.27
2023-05-11T12:10:10.982Z,15.22
2023-05-11T12:11:10.804Z,15.18
2023-05-11T12:12:10.815Z,15.22
2023-05-11T12:13:10.813Z,15.11
2023-05-11T12:14:10.956Z,15.15
2023-05-11T12:15:10.754Z,15.23
2023-05-11T12:16:10.821Z,15.26
2023-05-11T12:17:10.781Z,15.43
2023-05-11T12:18:10.803Z,15.59
2023-05-11T12:19:10.807Z,15.57
2023-05-11T12:20:10.731Z,15.60
2023-05-11T12:21:10.700Z,15.59
2023-05-11T12:22:10.705Z,15.47
2023-05-11T12:23:10.683Z,15.35
2023-05-11T12:24:10.719Z,15.29
2023-05-11T12:25:10.667Z,15.41
2023-05-11T12:26:10.634Z,15.43
2023-05-11T12:27:10.635Z,15.41
2023-05-11T12:28:10.617Z,15.37
2023-05-11T12:29:10.640Z,15.45
2023-05-11T12:30:10.608Z,15.41
2023-05-11T12:31:10.592Z,15.23
2023-05-11T12:32:10.615Z,15.26
2023-05-11T12:33:10.620Z,15.22
2023-05-11T12:34:10.584Z,15.19
2023-05-11T12:35:10.543Z,15.22
2023-05-11T12:36:10.522Z,15.47
2023-05-11T12:37:10.541Z,15.33
2023-05-11T12:38:10.506Z,15.27
2023-05-11T12:39:10.493Z,15.18
2023-05-11T12:40:10.498Z,15.23
2023-05-11T12:41:10.466Z,15.29
2023-05-11T12:42:10.492Z,15.32
2023-05-11T12:43:10.497Z,15.37
2023-05-11T12:44:10.489Z,15.55
2023-05-11T12:45:10.439Z,15.72
2023-05-11T12:46:10.511Z,15.57
2023-05-11T12:47:10.445Z,15.60
2023-05-11T12:48:10.428Z,15.52
2023-05-11T12:49:10.408Z,15.50
2023-05-11T12:50:10.398Z,15.60
2023-05-11T12:51:10.370Z,15.55
2023-05-11T12:52:10.420Z,15.50